DLH15X EDDV-EDDF
Flight info
| Callsign | DLH15X |
|---|---|
| Flight time | 0h 39m |
| Altitude | 27000 |
| Route | TOLTA1F TOLTA T154 ROBAR T152 KERAX KERAX5D |
| Aircraft | A319/M-SDE3FGHIRWY/LB1 |
Departure
| Time | 2026-04-14 15:52 |
|---|---|
| Airport | Hannover Airport (EDDV) |
Arrival
| Time | 2026-04-14 16:31 |
|---|---|
| Airport | Frankfurt Main Airport (EDDF) |
| Time | Latitude | Longitude | Altitude | Speed | Heading |
|---|---|---|---|---|---|
| 2026-04-14 15:34 | 52.45917 | 9.69287 | 179 ft | 0 kts | 94° |
| 2026-04-14 15:43 | 52.45918 | 9.69268 | 179 ft | 3 kts | 98° |
| 2026-04-14 15:43 | 52.45923 | 9.69236 | 179 ft | 3 kts | 114° |
| 2026-04-14 15:44 | 52.45932 | 9.69209 | 179 ft | 3 kts | 142° |
| 2026-04-14 15:44 | 52.45947 | 9.69197 | 179 ft | 3 kts | 189° |
| 2026-04-14 15:44 | 52.45957 | 9.69202 | 179 ft | 1 kts | 209° |
| 2026-04-14 15:44 | 52.45960 | 9.69204 | 179 ft | 0 kts | 209° |
| 2026-04-14 15:46 | 52.45955 | 9.69199 | 179 ft | 3 kts | 209° |
| 2026-04-14 15:46 | 52.45924 | 9.69171 | 179 ft | 8 kts | 209° |
| 2026-04-14 15:47 | 52.45872 | 9.69125 | 179 ft | 9 kts | 208° |
| 2026-04-14 15:47 | 52.45814 | 9.69074 | 179 ft | 10 kts | 186° |
| 2026-04-14 15:47 | 52.45752 | 9.69129 | 179 ft | 11 kts | 147° |
| 2026-04-14 15:47 | 52.45677 | 9.69146 | 179 ft | 12 kts | 183° |
| 2026-04-14 15:48 | 52.45619 | 9.69214 | 179 ft | 12 kts | 98° |
| 2026-04-14 15:48 | 52.45615 | 9.69355 | 179 ft | 13 kts | 92° |
| 2026-04-14 15:48 | 52.45611 | 9.69510 | 179 ft | 14 kts | 93° |
| 2026-04-14 15:48 | 52.45606 | 9.69677 | 179 ft | 15 kts | 92° |
| 2026-04-14 15:49 | 52.45601 | 9.69855 | 179 ft | 16 kts | 92° |
| 2026-04-14 15:49 | 52.45596 | 9.70047 | 179 ft | 17 kts | 92° |
| 2026-04-14 15:49 | 52.45590 | 9.70250 | 179 ft | 18 kts | 92° |
| 2026-04-14 15:49 | 52.45585 | 9.70465 | 179 ft | 19 kts | 92° |
| 2026-04-14 15:50 | 52.45578 | 9.70692 | 179 ft | 20 kts | 92° |
| 2026-04-14 15:50 | 52.45573 | 9.70892 | 179 ft | 15 kts | 92° |
| 2026-04-14 15:50 | 52.45546 | 9.71062 | 179 ft | 16 kts | 131° |
| 2026-04-14 15:50 | 52.45450 | 9.71101 | 183 ft | 10 kts | 184° |
| 2026-04-14 15:51 | 52.45408 | 9.71067 | 195 ft | 7 kts | 238° |
| 2026-04-14 15:51 | 52.45407 | 9.70963 | 186 ft | 13 kts | 273° |
| 2026-04-14 15:51 | 52.45423 | 9.70396 | 182 ft | 92 kts | 272° |
| 2026-04-14 15:51 | 52.45470 | 9.68952 | 248 ft | 152 kts | 275° |
| 2026-04-14 15:52 | 52.45516 | 9.67247 | 1009 ft | 149 kts | 274° |
| 2026-04-14 15:52 | 52.45551 | 9.65559 | 1726 ft | 154 kts | 274° |
| 2026-04-14 15:52 | 52.45599 | 9.63683 | 2242 ft | 174 kts | 274° |
| 2026-04-14 15:52 | 52.45661 | 9.61598 | 2765 ft | 196 kts | 274° |
| 2026-04-14 15:53 | 52.45730 | 9.59272 | 3570 ft | 207 kts | 274° |
| 2026-04-14 15:53 | 52.45795 | 9.56896 | 4606 ft | 209 kts | 274° |
| 2026-04-14 15:53 | 52.45610 | 9.54504 | 5525 ft | 218 kts | 249° |
| 2026-04-14 15:53 | 52.44667 | 9.52536 | 6512 ft | 226 kts | 219° |
| 2026-04-14 15:54 | 52.41891 | 9.49943 | 8333 ft | 240 kts | 210° |
| 2026-04-14 15:54 | 52.40184 | 9.49231 | 8834 ft | 270 kts | 189° |
| 2026-04-14 15:54 | 52.38275 | 9.48711 | 9573 ft | 283 kts | 194° |
| 2026-04-14 15:55 | 52.36332 | 9.47975 | 10411 ft | 294 kts | 196° |
| 2026-04-14 15:55 | 52.34268 | 9.47120 | 10816 ft | 318 kts | 197° |
| 2026-04-14 15:55 | 52.32042 | 9.46193 | 11174 ft | 342 kts | 196° |
| 2026-04-14 15:55 | 52.29682 | 9.45247 | 11805 ft | 354 kts | 195° |
| 2026-04-14 15:56 | 52.27264 | 9.44318 | 12601 ft | 360 kts | 195° |
| 2026-04-14 15:56 | 52.24790 | 9.43471 | 13421 ft | 366 kts | 190° |
| 2026-04-14 15:56 | 52.22225 | 9.43289 | 14199 ft | 374 kts | 179° |
| 2026-04-14 15:56 | 52.19609 | 9.43687 | 14946 ft | 379 kts | 176° |
| 2026-04-14 15:57 | 52.16980 | 9.44103 | 15693 ft | 382 kts | 176° |
| 2026-04-14 15:57 | 52.14320 | 9.44509 | 16436 ft | 385 kts | 176° |
| 2026-04-14 15:57 | 52.11637 | 9.44911 | 17182 ft | 389 kts | 176° |
| 2026-04-14 15:57 | 52.08934 | 9.45311 | 17930 ft | 392 kts | 176° |
| 2026-04-14 15:58 | 52.06205 | 9.45714 | 18659 ft | 396 kts | 176° |
| 2026-04-14 15:58 | 52.03453 | 9.46119 | 19289 ft | 399 kts | 177° |
| 2026-04-14 15:58 | 52.00670 | 9.46528 | 19929 ft | 403 kts | 177° |
| 2026-04-14 15:58 | 51.97858 | 9.46942 | 20555 ft | 407 kts | 177° |
| 2026-04-14 15:59 | 51.95022 | 9.47358 | 21167 ft | 411 kts | 177° |
| 2026-04-14 15:59 | 51.92160 | 9.47780 | 21758 ft | 415 kts | 177° |
| 2026-04-14 15:59 | 51.89311 | 9.48203 | 22319 ft | 419 kts | 176° |
| 2026-04-14 15:59 | 51.86358 | 9.48637 | 22885 ft | 423 kts | 176° |
| 2026-04-14 16:00 | 51.83411 | 9.49068 | 23441 ft | 427 kts | 176° |
| 2026-04-14 16:00 | 51.80477 | 9.49494 | 23944 ft | 430 kts | 176° |
| 2026-04-14 16:00 | 51.77486 | 9.49933 | 24388 ft | 434 kts | 176° |
| 2026-04-14 16:00 | 51.74467 | 9.50377 | 24824 ft | 437 kts | 177° |
| 2026-04-14 16:01 | 51.71385 | 9.50382 | 25253 ft | 438 kts | 187° |
| 2026-04-14 16:01 | 51.68424 | 9.49588 | 25678 ft | 438 kts | 197° |
| 2026-04-14 16:01 | 51.65545 | 9.47996 | 26091 ft | 438 kts | 206° |
| 2026-04-14 16:01 | 51.62851 | 9.45681 | 26510 ft | 439 kts | 213° |
| 2026-04-14 16:02 | 51.60222 | 9.43159 | 26951 ft | 442 kts | 213° |
| 2026-04-14 16:02 | 51.57566 | 9.40624 | 27378 ft | 445 kts | 213° |
| 2026-04-14 16:02 | 51.54891 | 9.38089 | 27768 ft | 448 kts | 213° |
| 2026-04-14 16:02 | 51.52187 | 9.35544 | 28148 ft | 451 kts | 213° |
| 2026-04-14 16:03 | 51.49469 | 9.32996 | 28532 ft | 454 kts | 213° |
| 2026-04-14 16:03 | 51.46719 | 9.30480 | 28911 ft | 458 kts | 210° |
| 2026-04-14 16:03 | 51.43755 | 9.28497 | 29160 ft | 464 kts | 200° |
| 2026-04-14 16:04 | 51.37403 | 9.27009 | 29203 ft | 466 kts | 178° |
| 2026-04-14 16:04 | 51.31023 | 9.28943 | 29197 ft | 467 kts | 169° |
| 2026-04-14 16:05 | 51.24672 | 9.31196 | 29194 ft | 468 kts | 169° |
| 2026-04-14 16:05 | 51.18325 | 9.33472 | 29187 ft | 467 kts | 168° |
| 2026-04-14 16:06 | 51.11982 | 9.35731 | 29194 ft | 467 kts | 169° |
| 2026-04-14 16:06 | 51.05634 | 9.37963 | 29200 ft | 467 kts | 169° |
| 2026-04-14 16:07 | 50.99295 | 9.40186 | 29199 ft | 467 kts | 169° |
| 2026-04-14 16:07 | 50.92951 | 9.42408 | 29191 ft | 466 kts | 169° |
| 2026-04-14 16:08 | 50.86619 | 9.44627 | 29210 ft | 462 kts | 169° |
| 2026-04-14 16:08 | 50.83506 | 9.45718 | 28486 ft | 456 kts | 169° |
| 2026-04-14 16:08 | 50.80407 | 9.46799 | 27467 ft | 457 kts | 169° |
| 2026-04-14 16:08 | 50.77289 | 9.47881 | 26802 ft | 460 kts | 169° |
| 2026-04-14 16:09 | 50.74160 | 9.48964 | 26175 ft | 463 kts | 169° |
| 2026-04-14 16:09 | 50.71011 | 9.50059 | 25551 ft | 465 kts | 169° |
| 2026-04-14 16:09 | 50.67850 | 9.51161 | 24943 ft | 463 kts | 168° |
| 2026-04-14 16:09 | 50.64713 | 9.52254 | 24339 ft | 461 kts | 168° |
| 2026-04-14 16:10 | 50.61589 | 9.53331 | 23745 ft | 457 kts | 169° |
| 2026-04-14 16:10 | 50.58503 | 9.54400 | 23067 ft | 452 kts | 168° |
| 2026-04-14 16:10 | 50.55404 | 9.54990 | 22471 ft | 447 kts | 181° |
| 2026-04-14 16:10 | 50.52400 | 9.54337 | 21946 ft | 440 kts | 198° |
| 2026-04-14 16:11 | 50.49573 | 9.52438 | 21419 ft | 434 kts | 212° |
| 2026-04-14 16:11 | 50.47257 | 9.49568 | 20910 ft | 428 kts | 227° |
| 2026-04-14 16:11 | 50.45489 | 9.45873 | 20389 ft | 422 kts | 243° |
| 2026-04-14 16:11 | 50.44384 | 9.41652 | 19896 ft | 417 kts | 254° |
| 2026-04-14 16:12 | 50.43579 | 9.37293 | 19398 ft | 416 kts | 255° |
| 2026-04-14 16:12 | 50.42679 | 9.32987 | 18929 ft | 416 kts | 250° |
| 2026-04-14 16:12 | 50.41371 | 9.28938 | 18455 ft | 415 kts | 240° |
| 2026-04-14 16:12 | 50.39695 | 9.25273 | 17910 ft | 413 kts | 231° |
| 2026-04-14 16:13 | 50.37713 | 9.22044 | 17378 ft | 411 kts | 223° |
| 2026-04-14 16:13 | 50.35450 | 9.19332 | 16849 ft | 409 kts | 214° |
| 2026-04-14 16:13 | 50.33034 | 9.17005 | 16341 ft | 407 kts | 212° |
| 2026-04-14 16:13 | 50.30712 | 9.14476 | 15831 ft | 404 kts | 220° |
| 2026-04-14 16:14 | 50.28689 | 9.11461 | 15331 ft | 400 kts | 229° |
| 2026-04-14 16:14 | 50.26994 | 9.08074 | 14843 ft | 394 kts | 237° |
| 2026-04-14 16:14 | 50.25635 | 9.04395 | 14356 ft | 389 kts | 245° |
| 2026-04-14 16:14 | 50.24615 | 9.00504 | 13868 ft | 386 kts | 251° |
| 2026-04-14 16:15 | 50.23702 | 8.96577 | 13327 ft | 382 kts | 250° |
| 2026-04-14 16:15 | 50.22792 | 8.92695 | 12806 ft | 378 kts | 250° |
| 2026-04-14 16:15 | 50.21891 | 8.88869 | 12291 ft | 374 kts | 250° |
| 2026-04-14 16:15 | 50.21000 | 8.85104 | 11897 ft | 363 kts | 250° |
| 2026-04-14 16:16 | 50.20145 | 8.81498 | 11773 ft | 345 kts | 250° |
| 2026-04-14 16:16 | 50.19331 | 8.78058 | 11644 ft | 330 kts | 250° |
| 2026-04-14 16:16 | 50.18556 | 8.74777 | 11513 ft | 316 kts | 250° |
| 2026-04-14 16:16 | 50.17813 | 8.71629 | 11388 ft | 302 kts | 250° |
| 2026-04-14 16:17 | 50.17099 | 8.68619 | 11262 ft | 291 kts | 250° |
| 2026-04-14 16:17 | 50.16407 | 8.65699 | 11005 ft | 285 kts | 249° |
| 2026-04-14 16:17 | 50.15723 | 8.62820 | 10684 ft | 281 kts | 249° |
| 2026-04-14 16:17 | 50.15052 | 8.60009 | 10559 ft | 271 kts | 249° |
| 2026-04-14 16:18 | 50.14417 | 8.57344 | 10436 ft | 261 kts | 249° |
| 2026-04-14 16:18 | 50.13797 | 8.54740 | 10320 ft | 251 kts | 249° |
| 2026-04-14 16:18 | 50.13188 | 8.52191 | 10096 ft | 247 kts | 249° |
| 2026-04-14 16:18 | 50.12596 | 8.49727 | 9775 ft | 245 kts | 249° |
| 2026-04-14 16:19 | 50.11991 | 8.47212 | 9446 ft | 243 kts | 249° |
| 2026-04-14 16:19 | 50.11400 | 8.44754 | 9065 ft | 243 kts | 250° |
| 2026-04-14 16:19 | 50.10816 | 8.42321 | 8689 ft | 244 kts | 250° |
| 2026-04-14 16:19 | 50.10222 | 8.39836 | 8282 ft | 245 kts | 251° |
| 2026-04-14 16:20 | 50.09628 | 8.37338 | 7917 ft | 247 kts | 252° |
| 2026-04-14 16:20 | 50.09019 | 8.34831 | 7561 ft | 247 kts | 251° |
| 2026-04-14 16:20 | 50.08411 | 8.32329 | 7238 ft | 247 kts | 251° |
| 2026-04-14 16:20 | 50.07807 | 8.29838 | 6892 ft | 246 kts | 251° |
| 2026-04-14 16:21 | 50.07205 | 8.27346 | 6528 ft | 246 kts | 251° |
| 2026-04-14 16:21 | 50.06597 | 8.24843 | 6144 ft | 246 kts | 251° |
| 2026-04-14 16:21 | 50.05993 | 8.22363 | 5805 ft | 243 kts | 251° |
| 2026-04-14 16:21 | 50.05396 | 8.19915 | 5472 ft | 241 kts | 251° |
| 2026-04-14 16:22 | 50.04803 | 8.17486 | 5118 ft | 240 kts | 251° |
| 2026-04-14 16:22 | 50.04212 | 8.15069 | 4767 ft | 238 kts | 251° |
| 2026-04-14 16:22 | 50.03624 | 8.12667 | 4413 ft | 237 kts | 251° |
| 2026-04-14 16:22 | 50.03040 | 8.10282 | 4063 ft | 235 kts | 251° |
| 2026-04-14 16:23 | 50.02447 | 8.07918 | 4015 ft | 235 kts | 246° |
| 2026-04-14 16:23 | 50.01405 | 8.05973 | 4019 ft | 239 kts | 214° |
| 2026-04-14 16:23 | 49.99841 | 8.05171 | 4020 ft | 240 kts | 180° |
| 2026-04-14 16:23 | 49.98197 | 8.05533 | 4020 ft | 239 kts | 165° |
| 2026-04-14 16:24 | 49.96628 | 8.06158 | 4013 ft | 224 kts | 161° |
| 2026-04-14 16:24 | 49.95390 | 8.07451 | 4015 ft | 214 kts | 124° |
| 2026-04-14 16:24 | 49.94756 | 8.09498 | 4021 ft | 211 kts | 106° |
| 2026-04-14 16:24 | 49.94313 | 8.11664 | 4021 ft | 210 kts | 104° |
| 2026-04-14 16:25 | 49.93896 | 8.13846 | 4018 ft | 211 kts | 102° |
| 2026-04-14 16:25 | 49.93808 | 8.16079 | 4016 ft | 207 kts | 78° |
| 2026-04-14 16:25 | 49.94236 | 8.18195 | 4023 ft | 206 kts | 67° |
| 2026-04-14 16:25 | 49.94744 | 8.20267 | 4019 ft | 206 kts | 67° |
| 2026-04-14 16:26 | 49.95247 | 8.22328 | 4014 ft | 200 kts | 66° |
| 2026-04-14 16:26 | 49.95719 | 8.24277 | 4039 ft | 184 kts | 66° |
| 2026-04-14 16:26 | 49.96157 | 8.26079 | 3971 ft | 175 kts | 66° |
| 2026-04-14 16:26 | 49.96583 | 8.27827 | 3802 ft | 172 kts | 67° |
| 2026-04-14 16:27 | 49.97002 | 8.29566 | 3602 ft | 171 kts | 67° |
| 2026-04-14 16:27 | 49.97424 | 8.31303 | 3373 ft | 173 kts | 66° |
| 2026-04-14 16:27 | 49.97850 | 8.33051 | 3146 ft | 174 kts | 67° |
| 2026-04-14 16:27 | 49.98272 | 8.34796 | 2917 ft | 173 kts | 67° |
| 2026-04-14 16:28 | 49.98694 | 8.36556 | 2659 ft | 175 kts | 67° |
| 2026-04-14 16:28 | 49.99119 | 8.38317 | 2437 ft | 174 kts | 68° |
| 2026-04-14 16:28 | 49.99544 | 8.40073 | 2207 ft | 174 kts | 68° |
| 2026-04-14 16:28 | 49.99965 | 8.41832 | 1979 ft | 172 kts | 67° |
| 2026-04-14 16:29 | 50.00376 | 8.43551 | 1707 ft | 165 kts | 66° |
| 2026-04-14 16:29 | 50.00761 | 8.45147 | 1468 ft | 155 kts | 68° |
| 2026-04-14 16:29 | 50.01129 | 8.46673 | 1261 ft | 146 kts | 67° |
| 2026-04-14 16:29 | 50.01479 | 8.48123 | 1065 ft | 137 kts | 67° |
| 2026-04-14 16:30 | 50.01803 | 8.49472 | 895 ft | 132 kts | 67° |
| 2026-04-14 16:30 | 50.02128 | 8.50835 | 730 ft | 132 kts | 68° |
| 2026-04-14 16:30 | 50.02447 | 8.52145 | 558 ft | 131 kts | 66° |
| 2026-04-14 16:30 | 50.02758 | 8.53444 | 389 ft | 126 kts | 68° |
| 2026-04-14 16:31 | 50.03049 | 8.54647 | 334 ft | 107 kts | 69° |
| 2026-04-14 16:31 | 50.03196 | 8.55264 | 346 ft | 73 kts | 69° |
| 2026-04-14 16:31 | 50.03355 | 8.55747 | 347 ft | 24 kts | 46° |
| 2026-04-14 16:31 | 50.03462 | 8.55890 | 347 ft | 14 kts | 39° |
| 2026-04-14 16:32 | 50.03511 | 8.55953 | 347 ft | 13 kts | 41° |
| 2026-04-14 16:32 | 50.03521 | 8.55967 | 357 ft | 0 kts | 40° |
| 2026-04-14 16:32 | 50.03534 | 8.55984 | 353 ft | 5 kts | 40° |
| 2026-04-14 16:33 | 50.03573 | 8.56033 | 350 ft | 10 kts | 40° |
| 2026-04-14 16:33 | 50.03630 | 8.56112 | 354 ft | 12 kts | 47° |
| 2026-04-14 16:33 | 50.03678 | 8.56248 | 353 ft | 16 kts | 70° |
| 2026-04-14 16:33 | 50.03719 | 8.56418 | 352 ft | 17 kts | 70° |
| 2026-04-14 16:34 | 50.03762 | 8.56601 | 353 ft | 19 kts | 70° |